sensor_id;sensor_type;location;lat;lon;timestamp;pressure;altitude;pressure_sealevel;temperature;humidity
12624;BME280;6377;42.836;23.998;2023-03-01T00:00:26;96358.34;;;5.26;100.00
12624;BME280;6377;42.836;23.998;2023-03-01T00:02:53;96349.63;;;5.16;100.00
12624;BME280;6377;42.836;23.998;2023-03-01T00:05:22;96328.91;;;4.92;100.00
12624;BME280;6377;42.836;23.998;2023-03-01T00:07:52;96298.53;;;4.69;100.00
12624;BME280;6377;42.836;23.998;2023-03-01T00:10:20;96322.47;;;4.64;100.00
12624;BME280;6377;42.836;23.998;2023-03-01T00:12:47;96302.09;;;4.47;100.00
12624;BME280;6377;42.836;23.998;2023-03-01T00:15:14;96324.84;;;4.67;100.00
12624;BME280;6377;42.836;23.998;2023-03-01T00:17:42;96286.63;;;4.44;100.00
12624;BME280;6377;42.836;23.998;2023-03-01T00:20:10;96302.56;;;4.52;100.00
12624;BME280;6377;42.836;23.998;2023-03-01T00:22:40;96273.53;;;4.44;100.00
12624;BME280;6377;42.836;23.998;2023-03-01T00:25:07;96330.09;;;4.67;100.00
12624;BME280;6377;42.836;23.998;2023-03-01T00:27:35;96329.00;;;4.70;100.00
12624;BME280;6377;42.836;23.998;2023-03-01T00:30:03;96294.47;;;4.44;100.00
12624;BME280;6377;42.836;23.998;2023-03-01T00:32:30;96277.13;;;4.43;100.00
12624;BME280;6377;42.836;23.998;2023-03-01T00:34:58;96197.84;;;3.88;100.00
12624;BME280;6377;42.836;23.998;2023-03-01T00:37:26;96315.59;;;4.63;100.00
12624;BME280;6377;42.836;23.998;2023-03-01T00:39:54;96324.78;;;4.58;100.00
12624;BME280;6377;42.836;23.998;2023-03-01T00:42:22;96290.00;;;4.56;100.00
12624;BME280;6377;42.836;23.998;2023-03-01T00:44:49;96261.44;;;4.32;100.00
12624;BME280;6377;42.836;23.998;2023-03-01T00:47:17;96290.91;;;4.45;100.00
12624;BME280;6377;42.836;23.998;2023-03-01T00:49:44;96239.25;;;4.15;100.00
12624;BME280;6377;42.836;23.998;2023-03-01T00:52:12;96310.59;;;4.60;100.00
12624;BME280;6377;42.836;23.998;2023-03-01T00:54:39;96181.97;;;4.01;100.00
12624;BME280;6377;42.836;23.998;2023-03-01T00:57:08;96291.44;;;4.80;100.00
12624;BME280;6377;42.836;23.998;2023-03-01T00:59:35;96289.91;;;4.78;100.00
12624;BME280;6377;42.836;23.998;2023-03-01T01:02:03;96273.53;;;4.65;100.00
12624;BME280;6377;42.836;23.998;2023-03-01T01:04:30;96278.41;;;4.69;100.00
12624;BME280;6377;42.836;23.998;2023-03-01T01:06:58;96291.81;;;4.76;100.00
12624;BME280;6377;42.836;23.998;2023-03-01T01:09:25;96284.28;;;4.82;100.00
12624;BME280;6377;42.836;23.998;2023-03-01T01:11:52;96290.09;;;4.86;100.00
12624;BME280;6377;42.836;23.998;2023-03-01T01:14:21;96278.53;;;4.88;100.00
12624;BME280;6377;42.836;23.998;2023-03-01T01:16:48;96249.63;;;4.58;100.00
12624;BME280;6377;42.836;23.998;2023-03-01T01:19:16;96262.69;;;4.69;100.00
12624;BME280;6377;42.836;23.998;2023-03-01T01:21:43;96219.03;;;4.38;100.00
12624;BME280;6377;42.836;23.998;2023-03-01T01:24:11;96240.81;;;4.59;100.00
12624;BME280;6377;42.836;23.998;2023-03-01T01:26:39;96259.34;;;4.67;100.00
12624;BME280;6377;42.836;23.998;2023-03-01T01:29:07;96188.88;;;4.23;100.00
12624;BME280;6377;42.836;23.998;2023-03-01T01:31:37;96277.13;;;4.84;100.00
12624;BME280;6377;42.836;23.998;2023-03-01T01:34:06;96255.25;;;4.74;100.00
12624;BME280;6377;42.836;23.998;2023-03-01T01:36:35;96250.13;;;4.73;100.00
12624;BME280;6377;42.836;23.998;2023-03-01T01:39:03;96229.66;;;4.36;100.00
12624;BME280;6377;42.836;23.998;2023-03-01T01:41:31;96282.09;;;4.87;100.00
12624;BME280;6377;42.836;23.998;2023-03-01T01:44:14;96223.31;;;4.39;100.00
12624;BME280;6377;42.836;23.998;2023-03-01T01:46:45;96287.72;;;4.83;100.00
12624;BME280;6377;42.836;23.998;2023-03-01T01:49:26;96246.25;;;4.67;100.00
12624;BME280;6377;42.836;23.998;2023-03-01T01:52:02;96276.47;;;4.92;100.00
12624;BME280;6377;42.836;23.998;2023-03-01T01:54:40;96280.81;;;5.02;100.00
12624;BME280;6377;42.836;23.998;2023-03-01T01:57:12;96271.47;;;5.09;100.00
12624;BME280;6377;42.836;23.998;2023-03-01T01:59:44;96281.78;;;5.01;100.00
12624;BME280;6377;42.836;23.998;2023-03-01T02:02:14;96286.00;;;4.93;100.00
12624;BME280;6377;42.836;23.998;2023-03-01T02:04:41;96286.56;;;4.96;100.00
12624;BME280;6377;42.836;23.998;2023-03-01T02:07:14;96252.50;;;4.76;100.00
12624;BME280;6377;42.836;23.998;2023-03-01T02:09:45;96243.88;;;4.64;100.00
12624;BME280;6377;42.836;23.998;2023-03-01T02:12:13;96278.75;;;5.06;100.00
12624;BME280;6377;42.836;23.998;2023-03-01T02:14:41;96278.94;;;5.14;100.00
12624;BME280;6377;42.836;23.998;2023-03-01T02:17:08;96276.88;;;5.18;100.00
12624;BME280;6377;42.836;23.998;2023-03-01T02:19:47;96277.78;;;5.28;100.00
12624;BME280;6377;42.836;23.998;2023-03-01T02:22:22;96271.38;;;5.21;100.00
12624;BME280;6377;42.836;23.998;2023-03-01T02:24:57;96279.56;;;5.27;100.00
12624;BME280;6377;42.836;23.998;2023-03-01T02:27:38;96281.03;;;5.20;100.00
12624;BME280;6377;42.836;23.998;2023-03-01T02:30:10;96267.91;;;5.11;100.00
12624;BME280;6377;42.836;23.998;2023-03-01T02:32:40;96276.19;;;5.16;100.00
12624;BME280;6377;42.836;23.998;2023-03-01T02:35:09;96268.84;;;5.09;100.00
12624;BME280;6377;42.836;23.998;2023-03-01T02:37:39;96269.34;;;5.24;100.00
12624;BME280;6377;42.836;23.998;2023-03-01T02:40:10;96263.41;;;5.22;100.00
12624;BME280;6377;42.836;23.998;2023-03-01T02:42:42;96262.56;;;5.22;100.00
12624;BME280;6377;42.836;23.998;2023-03-01T02:45:14;96266.28;;;5.19;100.00
12624;BME280;6377;42.836;23.998;2023-03-01T02:47:41;96257.16;;;5.23;100.00
12624;BME280;6377;42.836;23.998;2023-03-01T02:50:19;96267.53;;;5.25;100.00
12624;BME280;6377;42.836;23.998;2023-03-01T02:52:55;96270.03;;;5.26;100.00
12624;BME280;6377;42.836;23.998;2023-03-01T02:55:25;96266.28;;;5.19;100.00
12624;BME280;6377;42.836;23.998;2023-03-01T02:57:53;96247.13;;;4.98;100.00
12624;BME280;6377;42.836;23.998;2023-03-01T03:00:28;96272.06;;;5.13;100.00
12624;BME280;6377;42.836;23.998;2023-03-01T03:02:58;96270.63;;;5.09;100.00
12624;BME280;6377;42.836;23.998;2023-03-01T03:05:32;96266.25;;;4.89;100.00
12624;BME280;6377;42.836;23.998;2023-03-01T03:08:01;96259.31;;;4.78;100.00
12624;BME280;6377;42.836;23.998;2023-03-01T03:10:31;96241.50;;;4.61;100.00
12624;BME280;6377;42.836;23.998;2023-03-01T03:13:00;96269.53;;;4.81;100.00
12624;BME280;6377;42.836;23.998;2023-03-01T03:15:29;96269.28;;;4.84;100.00
12624;BME280;6377;42.836;23.998;2023-03-01T03:17:57;96236.50;;;4.69;100.00
12624;BME280;6377;42.836;23.998;2023-03-01T03:20:27;96227.63;;;4.61;100.00
12624;BME280;6377;42.836;23.998;2023-03-01T03:22:56;96263.97;;;4.75;100.00
12624;BME280;6377;42.836;23.998;2023-03-01T03:25:25;96242.03;;;4.55;100.00
12624;BME280;6377;42.836;23.998;2023-03-01T03:27:53;96250.97;;;4.52;100.00
12624;BME280;6377;42.836;23.998;2023-03-01T03:30:24;96213.50;;;4.31;100.00
12624;BME280;6377;42.836;23.998;2023-03-01T03:32:54;96246.25;;;4.46;100.00
12624;BME280;6377;42.836;23.998;2023-03-01T03:35:25;96225.59;;;4.32;100.00
12624;BME280;6377;42.836;23.998;2023-03-01T03:37:56;96260.06;;;4.69;100.00
12624;BME280;6377;42.836;23.998;2023-03-01T03:40:35;96208.50;;;4.28;100.00
12624;BME280;6377;42.836;23.998;2023-03-01T03:43:02;96101.75;;;3.59;100.00
12624;BME280;6377;42.836;23.998;2023-03-01T03:45:31;96279.50;;;4.67;100.00
12624;BME280;6377;42.836;23.998;2023-03-01T03:48:01;96279.41;;;4.57;100.00
12624;BME280;6377;42.836;23.998;2023-03-01T03:50:29;96300.19;;;4.49;100.00
12624;BME280;6377;42.836;23.998;2023-03-01T03:52:56;96265.81;;;4.42;100.00
12624;BME280;6377;42.836;23.998;2023-03-01T03:55:24;96241.91;;;4.36;100.00
12624;BME280;6377;42.836;23.998;2023-03-01T03:57:57;96273.59;;;4.53;100.00
12624;BME280;6377;42.836;23.998;2023-03-01T04:00:28;96239.00;;;4.18;100.00
12624;BME280;6377;42.836;23.998;2023-03-01T04:02:55;96289.13;;;4.45;100.00
12624;BME280;6377;42.836;23.998;2023-03-01T04:05:25;96243.22;;;4.10;100.00
12624;BME280;6377;42.836;23.998;2023-03-01T04:07:52;96236.44;;;4.07;100.00
12624;BME280;6377;42.836;23.998;2023-03-01T04:10:28;96277.47;;;4.38;100.00
12624;BME280;6377;42.836;23.998;2023-03-01T04:12:55;96221.94;;;4.03;100.00
12624;BME280;6377;42.836;23.998;2023-03-01T04:15:23;96285.66;;;4.45;100.00
12624;BME280;6377;42.836;23.998;2023-03-01T04:17:52;96269.75;;;4.37;100.00
12624;BME280;6377;42.836;23.998;2023-03-01T04:20:21;96292.78;;;4.54;100.00
12624;BME280;6377;42.836;23.998;2023-03-01T04:22:53;96220.22;;;4.13;100.00
12624;BME280;6377;42.836;23.998;2023-03-01T04:25:24;96272.44;;;4.46;100.00
12624;BME280;6377;42.836;23.998;2023-03-01T04:27:51;96285.50;;;4.58;100.00
12624;BME280;6377;42.836;23.998;2023-03-01T04:30:19;96266.00;;;4.50;100.00
12624;BME280;6377;42.836;23.998;2023-03-01T04:32:50;96284.41;;;4.60;100.00
12624;BME280;6377;42.836;23.998;2023-03-01T04:35:18;96229.66;;;4.36;100.00
12624;BME280;6377;42.836;23.998;2023-03-01T04:37:46;96283.19;;;4.85;100.00
12624;BME280;6377;42.836;23.998;2023-03-01T04:40:15;96181.72;;;4.04;100.00
12624;BME280;6377;42.836;23.998;2023-03-01T04:42:43;96254.31;;;4.55;100.00
12624;BME280;6377;42.836;23.998;2023-03-01T04:45:10;96204.78;;;4.31;100.00
12624;BME280;6377;42.836;23.998;2023-03-01T04:47:40;96183.28;;;4.27;100.00
12624;BME280;6377;42.836;23.998;2023-03-01T04:50:09;96270.53;;;4.90;100.00
12624;BME280;6377;42.836;23.998;2023-03-01T04:52:37;96180.16;;;4.33;100.00
12624;BME280;6377;42.836;23.998;2023-03-01T04:55:05;96283.81;;;4.98;100.00
12624;BME280;6377;42.836;23.998;2023-03-01T04:57:34;96192.59;;;4.41;100.00
12624;BME280;6377;42.836;23.998;2023-03-01T05:00:02;96190.63;;;4.54;100.00
12624;BME280;6377;42.836;23.998;2023-03-01T05:02:47;96276.81;;;4.98;100.00
12624;BME280;6377;42.836;23.998;2023-03-01T05:05:23;96252.97;;;4.81;100.00
12624;BME280;6377;42.836;23.998;2023-03-01T05:07:56;96270.28;;;4.93;100.00
12624;BME280;6377;42.836;23.998;2023-03-01T05:10:24;96261.97;;;4.88;100.00
12624;BME280;6377;42.836;23.998;2023-03-01T05:12:54;96266.09;;;4.90;100.00
12624;BME280;6377;42.836;23.998;2023-03-01T05:15:23;96274.19;;;4.98;100.00
12624;BME280;6377;42.836;23.998;2023-03-01T05:17:52;96235.25;;;4.73;100.00
12624;BME280;6377;42.836;23.998;2023-03-01T05:20:21;96265.59;;;4.76;100.00
12624;BME280;6377;42.836;23.998;2023-03-01T05:22:49;96274.44;;;4.95;100.00
12624;BME280;6377;42.836;23.998;2023-03-01T05:25:17;96277.50;;;5.00;100.00
12624;BME280;6377;42.836;23.998;2023-03-01T05:27:44;96258.31;;;5.00;100.00
12624;BME280;6377;42.836;23.998;2023-03-01T05:30:14;96264.44;;;5.10;100.00
12624;BME280;6377;42.836;23.998;2023-03-01T05:32:44;96233.38;;;4.85;100.00
12624;BME280;6377;42.836;23.998;2023-03-01T05:35:12;96244.25;;;5.01;100.00
12624;BME280;6377;42.836;23.998;2023-03-01T05:37:41;96263.03;;;5.06;100.00
12624;BME280;6377;42.836;23.998;2023-03-01T05:40:11;96281.50;;;5.25;100.00
12624;BME280;6377;42.836;23.998;2023-03-01T05:42:44;96265.56;;;5.17;100.00
12624;BME280;6377;42.836;23.998;2023-03-01T05:45:14;96274.75;;;5.32;100.00
12624;BME280;6377;42.836;23.998;2023-03-01T05:47:42;96274.38;;;5.37;100.00
12624;BME280;6377;42.836;23.998;2023-03-01T05:50:12;96281.25;;;5.38;100.00
12624;BME280;6377;42.836;23.998;2023-03-01T05:52:40;96256.13;;;5.05;100.00
12624;BME280;6377;42.836;23.998;2023-03-01T05:55:08;96255.84;;;5.08;100.00
12624;BME280;6377;42.836;23.998;2023-03-01T05:57:35;96284.38;;;5.22;100.00
12624;BME280;6377;42.836;23.998;2023-03-01T06:00:02;96286.59;;;5.27;100.00
12624;BME280;6377;42.836;23.998;2023-03-01T06:02:33;96292.94;;;5.24;100.00
12624;BME280;6377;42.836;23.998;2023-03-01T06:05:00;96238.50;;;4.86;100.00
12624;BME280;6377;42.836;23.998;2023-03-01T06:07:28;96293.06;;;5.23;100.00
12624;BME280;6377;42.836;23.998;2023-03-01T06:09:55;96299.00;;;5.25;100.00
12624;BME280;6377;42.836;23.998;2023-03-01T06:12:22;96286.00;;;5.14;100.00
12624;BME280;6377;42.836;23.998;2023-03-01T06:14:49;96296.72;;;5.31;100.00
12624;BME280;6377;42.836;23.998;2023-03-01T06:17:16;96225.00;;;4.91;100.00
12624;BME280;6377;42.836;23.998;2023-03-01T06:19:46;96306.38;;;5.40;100.00
12624;BME280;6377;42.836;23.998;2023-03-01T06:22:13;96226.31;;;4.76;100.00
12624;BME280;6377;42.836;23.998;2023-03-01T06:24:42;96278.69;;;4.96;100.00
12624;BME280;6377;42.836;23.998;2023-03-01T06:27:10;96258.72;;;4.75;100.00
12624;BME280;6377;42.836;23.998;2023-03-01T06:29:37;96295.19;;;4.87;100.00
12624;BME280;6377;42.836;23.998;2023-03-01T06:32:05;96290.41;;;4.92;100.00
12624;BME280;6377;42.836;23.998;2023-03-01T06:34:33;96294.44;;;4.96;100.00
12624;BME280;6377;42.836;23.998;2023-03-01T06:37:02;96293.72;;;4.94;100.00
12624;BME280;6377;42.836;23.998;2023-03-01T06:39:30;96285.94;;;4.83;100.00
12624;BME280;6377;42.836;23.998;2023-03-01T06:41:58;96292.91;;;4.94;100.00
12624;BME280;6377;42.836;23.998;2023-03-01T06:44:28;96298.34;;;4.81;100.00
12624;BME280;6377;42.836;23.998;2023-03-01T06:46:56;96282.56;;;4.72;100.00
12624;BME280;6377;42.836;23.998;2023-03-01T06:49:27;96276.56;;;4.60;100.00
12624;BME280;6377;42.836;23.998;2023-03-01T06:51:54;96303.97;;;4.77;100.00
12624;BME280;6377;42.836;23.998;2023-03-01T06:54:23;96235.91;;;4.45;100.00
12624;BME280;6377;42.836;23.998;2023-03-01T06:56:51;96256.88;;;4.66;100.00
12624;BME280;6377;42.836;23.998;2023-03-01T06:59:27;96238.19;;;4.59;100.00
12624;BME280;6377;42.836;23.998;2023-03-01T07:01:55;96252.56;;;4.65;100.00
12624;BME280;6377;42.836;23.998;2023-03-01T07:04:22;96288.38;;;4.96;100.00
12624;BME280;6377;42.836;23.998;2023-03-01T07:06:49;96211.69;;;4.52;100.00
12624;BME280;6377;42.836;23.998;2023-03-01T07:09:23;96249.59;;;4.69;100.00
12624;BME280;6377;42.836;23.998;2023-03-01T07:11:51;96294.69;;;4.93;100.00
12624;BME280;6377;42.836;23.998;2023-03-01T07:14:18;96265.66;;;4.85;100.00
12624;BME280;6377;42.836;23.998;2023-03-01T07:16:46;96108.78;;;3.79;100.00
12624;BME280;6377;42.836;23.998;2023-03-01T07:19:13;96094.91;;;3.78;100.00
12624;BME280;6377;42.836;23.998;2023-03-01T07:21:41;96278.13;;;5.14;100.00
12624;BME280;6377;42.836;23.998;2023-03-01T07:24:08;96191.19;;;4.58;100.00
12624;BME280;6377;42.836;23.998;2023-03-01T07:26:37;96275.34;;;5.15;100.00
12624;BME280;6377;42.836;23.998;2023-03-01T07:29:07;96219.91;;;4.89;100.00
12624;BME280;6377;42.836;23.998;2023-03-01T07:31:34;96280.91;;;5.22;100.00
12624;BME280;6377;42.836;23.998;2023-03-01T07:34:02;96229.41;;;4.90;100.00
12624;BME280;6377;42.836;23.998;2023-03-01T07:36:30;96279.13;;;5.22;100.00
12624;BME280;6377;42.836;23.998;2023-03-01T07:38:57;96274.88;;;5.31;100.00
12624;BME280;6377;42.836;23.998;2023-03-01T07:41:25;96272.44;;;5.39;100.00
12624;BME280;6377;42.836;23.998;2023-03-01T07:43:53;96255.00;;;5.28;100.00
12624;BME280;6377;42.836;23.998;2023-03-01T07:58:05;96276.41;;;6.32;100.00
12624;BME280;6377;42.836;23.998;2023-03-01T08:00:32;96265.34;;;6.19;100.00
12624;BME280;6377;42.836;23.998;2023-03-01T08:03:00;96268.66;;;6.11;100.00
12624;BME280;6377;42.836;23.998;2023-03-01T08:05:27;96272.47;;;5.88;100.00
12624;BME280;6377;42.836;23.998;2023-03-01T08:13:29;96266.38;;;5.88;100.00
12624;BME280;6377;42.836;23.998;2023-03-01T08:16:07;96258.91;;;5.83;100.00
12624;BME280;6377;42.836;23.998;2023-03-01T08:18:44;96229.72;;;5.57;100.00
12624;BME280;6377;42.836;23.998;2023-03-01T08:21:12;96255.88;;;5.78;100.00
12624;BME280;6377;42.836;23.998;2023-03-01T08:23:43;96201.09;;;5.54;100.00
12624;BME280;6377;42.836;23.998;2023-03-01T08:26:15;96124.03;;;4.96;100.00
12624;BME280;6377;42.836;23.998;2023-03-01T08:28:54;96062.63;;;4.80;100.00
12624;BME280;6377;42.836;23.998;2023-03-01T08:31:30;96208.97;;;5.64;100.00
12624;BME280;6377;42.836;23.998;2023-03-01T08:34:15;96271.88;;;5.85;100.00
12624;BME280;6377;42.836;23.998;2023-03-01T08:36:44;96263.28;;;5.73;100.00
12624;BME280;6377;42.836;23.998;2023-03-01T08:39:13;96265.06;;;5.63;100.00
12624;BME280;6377;42.836;23.998;2023-03-01T08:41:40;96271.16;;;5.73;100.00
12624;BME280;6377;42.836;23.998;2023-03-01T08:44:34;96264.00;;;5.75;100.00
12624;BME280;6377;42.836;23.998;2023-03-01T08:47:01;96230.63;;;5.47;100.00
12624;BME280;6377;42.836;23.998;2023-03-01T08:49:30;96256.91;;;5.56;100.00
12624;BME280;6377;42.836;23.998;2023-03-01T08:51:59;96218.03;;;5.41;100.00
12624;BME280;6377;42.836;23.998;2023-03-01T08:54:26;96208.28;;;5.62;100.00
12624;BME280;6377;42.836;23.998;2023-03-01T08:57:01;96244.66;;;5.76;100.00
12624;BME280;6377;42.836;23.998;2023-03-01T08:59:29;96239.41;;;5.76;100.00
12624;BME280;6377;42.836;23.998;2023-03-01T09:02:02;96222.38;;;5.51;100.00
12624;BME280;6377;42.836;23.998;2023-03-01T09:04:31;96273.59;;;5.95;100.00
12624;BME280;6377;42.836;23.998;2023-03-01T09:07:01;96149.53;;;5.25;100.00
12624;BME280;6377;42.836;23.998;2023-03-01T09:09:31;96260.97;;;5.80;100.00
12624;BME280;6377;42.836;23.998;2023-03-01T09:11:58;96281.19;;;5.89;100.00
12624;BME280;6377;42.836;23.998;2023-03-01T09:14:26;96256.28;;;5.83;100.00
12624;BME280;6377;42.836;23.998;2023-03-01T09:16:53;96283.72;;;6.09;100.00
12624;BME280;6377;42.836;23.998;2023-03-01T09:19:31;96275.97;;;6.08;100.00
12624;BME280;6377;42.836;23.998;2023-03-01T09:21:58;96280.13;;;6.10;100.00
12624;BME280;6377;42.836;23.998;2023-03-01T09:24:25;96282.22;;;6.26;100.00
12624;BME280;6377;42.836;23.998;2023-03-01T09:26:56;96221.78;;;5.97;100.00
12624;BME280;6377;42.836;23.998;2023-03-01T09:29:23;96285.13;;;6.33;100.00
12624;BME280;6377;42.836;23.998;2023-03-01T09:31:51;96259.81;;;6.22;100.00
12624;BME280;6377;42.836;23.998;2023-03-01T09:34:26;96283.31;;;6.33;100.00
12624;BME280;6377;42.836;23.998;2023-03-01T09:36:57;96278.34;;;6.30;100.00
12624;BME280;6377;42.836;23.998;2023-03-01T09:39:28;96265.63;;;6.16;100.00
12624;BME280;6377;42.836;23.998;2023-03-01T09:41:59;96272.41;;;6.18;100.00
12624;BME280;6377;42.836;23.998;2023-03-01T09:44:31;96275.59;;;6.22;100.00
12624;BME280;6377;42.836;23.998;2023-03-01T09:47:01;96261.59;;;6.12;100.00
12624;BME280;6377;42.836;23.998;2023-03-01T09:49:31;96256.22;;;6.04;100.00
12624;BME280;6377;42.836;23.998;2023-03-01T09:52:06;96135.16;;;5.19;100.00
12624;BME280;6377;42.836;23.998;2023-03-01T09:54:38;96253.50;;;5.85;100.00
12624;BME280;6377;42.836;23.998;2023-03-01T09:57:13;96230.41;;;5.69;100.00
12624;BME280;6377;42.836;23.998;2023-03-01T09:59:57;96264.75;;;5.87;100.00
12624;BME280;6377;42.836;23.998;2023-03-01T10:02:36;96258.66;;;5.86;100.00
12624;BME280;6377;42.836;23.998;2023-03-01T10:05:13;96209.78;;;5.55;100.00
12624;BME280;6377;42.836;23.998;2023-03-01T10:07:49;96215.44;;;5.50;100.00
12624;BME280;6377;42.836;23.998;2023-03-01T10:10:29;96207.16;;;5.45;100.00
12624;BME280;6377;42.836;23.998;2023-03-01T10:13:02;96242.84;;;5.77;100.00
12624;BME280;6377;42.836;23.998;2023-03-01T10:15:34;96146.28;;;5.02;100.00
12624;BME280;6377;42.836;23.998;2023-03-01T10:18:07;96127.34;;;4.89;100.00
12624;BME280;6377;42.836;23.998;2023-03-01T10:20:44;96228.59;;;5.70;100.00
12624;BME280;6377;42.836;23.998;2023-03-01T10:23:14;96178.19;;;5.56;100.00
12624;BME280;6377;42.836;23.998;2023-03-01T10:25:51;96175.44;;;5.68;100.00
12624;BME280;6377;42.836;23.998;2023-03-01T10:28:26;96061.06;;;5.27;100.00
12624;BME280;6377;42.836;23.998;2023-03-01T10:30:57;96170.09;;;5.88;100.00
12624;BME280;6377;42.836;23.998;2023-03-01T10:33:27;96229.41;;;6.39;100.00
12624;BME280;6377;42.836;23.998;2023-03-01T10:35:56;96232.44;;;6.53;100.00
12624;BME280;6377;42.836;23.998;2023-03-01T10:38:25;96184.59;;;6.11;100.00
12624;BME280;6377;42.836;23.998;2023-03-01T10:40:54;96199.94;;;6.26;100.00
12624;BME280;6377;42.836;23.998;2023-03-01T10:43:23;96161.13;;;5.91;100.00
12624;BME280;6377;42.836;23.998;2023-03-01T10:45:51;96225.13;;;6.28;100.00
12624;BME280;6377;42.836;23.998;2023-03-01T10:48:20;96223.88;;;6.32;100.00
12624;BME280;6377;42.836;23.998;2023-03-01T10:51:03;96180.06;;;6.13;100.00
12624;BME280;6377;42.836;23.998;2023-03-01T10:53:34;96236.03;;;6.43;100.00
12624;BME280;6377;42.836;23.998;2023-03-01T10:56:05;96200.09;;;6.14;100.00
12624;BME280;6377;42.836;23.998;2023-03-01T10:58:33;96214.31;;;6.41;100.00
12624;BME280;6377;42.836;23.998;2023-03-01T11:01:02;96224.25;;;6.37;100.00
12624;BME280;6377;42.836;23.998;2023-03-01T11:03:32;96187.94;;;5.94;100.00
12624;BME280;6377;42.836;23.998;2023-03-01T11:06:03;96180.75;;;5.87;100.00
12624;BME280;6377;42.836;23.998;2023-03-01T11:08:38;96038.97;;;5.10;100.00
12624;BME280;6377;42.836;23.998;2023-03-01T11:11:29;96023.47;;;4.97;100.00
12624;BME280;6377;42.836;23.998;2023-03-01T11:13:59;96202.28;;;6.38;100.00
12624;BME280;6377;42.836;23.998;2023-03-01T11:16:31;96194.53;;;6.46;100.00
12624;BME280;6377;42.836;23.998;2023-03-01T11:19:12;96122.84;;;6.07;100.00
12624;BME280;6377;42.836;23.998;2023-03-01T11:21:44;96204.63;;;6.60;100.00
12624;BME280;6377;42.836;23.998;2023-03-01T11:24:17;96086.38;;;5.85;100.00
12624;BME280;6377;42.836;23.998;2023-03-01T11:26:47;96169.75;;;6.58;100.00
12624;BME280;6377;42.836;23.998;2023-03-01T11:29:28;96184.69;;;6.67;100.00
12624;BME280;6377;42.836;23.998;2023-03-01T11:32:00;96143.09;;;6.53;100.00
12624;BME280;6377;42.836;23.998;2023-03-01T11:34:37;96141.84;;;6.57;100.00
12624;BME280;6377;42.836;23.998;2023-03-01T11:37:15;96135.91;;;6.46;100.00
12624;BME280;6377;42.836;23.998;2023-03-01T11:39:49;96071.84;;;5.81;100.00
12624;BME280;6377;42.836;23.998;2023-03-01T11:42:25;96172.44;;;6.20;100.00
12624;BME280;6377;42.836;23.998;2023-03-01T11:44:59;96141.38;;;5.87;100.00
12624;BME280;6377;42.836;23.998;2023-03-01T11:47:37;96030.41;;;5.18;100.00
12624;BME280;6377;42.836;23.998;2023-03-01T11:50:17;96161.94;;;6.01;100.00
12624;BME280;6377;42.836;23.998;2023-03-01T11:52:56;96108.59;;;5.62;100.00
12624;BME280;6377;42.836;23.998;2023-03-01T11:55:35;96128.31;;;5.76;100.00
12624;BME280;6377;42.836;23.998;2023-03-01T11:58:20;96165.41;;;6.01;100.00
12624;BME280;6377;42.836;23.998;2023-03-01T12:01:13;96161.41;;;6.07;100.00
12624;BME280;6377;42.836;23.998;2023-03-01T12:19:56;96105.66;;;5.55;100.00
12624;BME280;6377;42.836;23.998;2023-03-01T12:22:30;96156.38;;;5.85;100.00
12624;BME280;6377;42.836;23.998;2023-03-01T12:25:28;96130.16;;;5.75;100.00
12624;BME280;6377;42.836;23.998;2023-03-01T12:28:31;96163.75;;;6.00;100.00
12624;BME280;6377;42.836;23.998;2023-03-01T12:31:29;96137.47;;;5.81;100.00
12624;BME280;6377;42.836;23.998;2023-03-01T12:34:04;96135.84;;;5.90;100.00
12624;BME280;6377;42.836;23.998;2023-03-01T12:36:58;96130.25;;;5.64;100.00
12624;BME280;6377;42.836;23.998;2023-03-01T12:39:40;96134.97;;;5.80;100.00
12624;BME280;6377;42.836;23.998;2023-03-01T12:42:20;96158.22;;;5.94;100.00
12624;BME280;6377;42.836;23.998;2023-03-01T12:45:27;96140.38;;;5.88;100.00
12624;BME280;6377;42.836;23.998;2023-03-01T12:48:17;96141.91;;;5.90;100.00
12624;BME280;6377;42.836;23.998;2023-03-01T12:50:52;96143.25;;;5.85;100.00
12624;BME280;6377;42.836;23.998;2023-03-01T12:53:24;96143.16;;;5.86;100.00
12624;BME280;6377;42.836;23.998;2023-03-01T12:55:54;96147.03;;;5.92;100.00
12624;BME280;6377;42.836;23.998;2023-03-01T12:58:27;96140.81;;;5.93;100.00
12624;BME280;6377;42.836;23.998;2023-03-01T13:01:11;96140.53;;;5.86;100.00
12624;BME280;6377;42.836;23.998;2023-03-01T13:07:02;96141.75;;;5.63;100.00
12624;BME280;6377;42.836;23.998;2023-03-01T13:09:38;96063.94;;;5.14;100.00
12624;BME280;6377;42.836;23.998;2023-03-01T13:12:44;96127.91;;;5.51;100.00
12624;BME280;6377;42.836;23.998;2023-03-01T13:15:32;96133.00;;;5.53;100.00
12624;BME280;6377;42.836;23.998;2023-03-01T13:18:01;96102.50;;;5.42;100.00
12624;BME280;6377;42.836;23.998;2023-03-01T13:20:32;96133.88;;;5.63;100.00
12624;BME280;6377;42.836;23.998;2023-03-01T13:23:13;96134.13;;;5.60;100.00
12624;BME280;6377;42.836;23.998;2023-03-01T13:26:02;96129.00;;;5.58;100.00
12624;BME280;6377;42.836;23.998;2023-03-01T13:28:38;96131.63;;;5.58;100.00
12624;BME280;6377;42.836;23.998;2023-03-01T13:31:11;96067.69;;;5.31;100.00
12624;BME280;6377;42.836;23.998;2023-03-01T13:33:55;96121.00;;;5.70;100.00
12624;BME280;6377;42.836;23.998;2023-03-01T13:36:46;96125.31;;;5.80;100.00
12624;BME280;6377;42.836;23.998;2023-03-01T13:39:31;96122.00;;;5.88;100.00
12624;BME280;6377;42.836;23.998;2023-03-01T13:41:59;96120.59;;;5.74;100.00
12624;BME280;6377;42.836;23.998;2023-03-01T13:44:30;96120.03;;;5.71;100.00
12624;BME280;6377;42.836;23.998;2023-03-01T13:47:03;96120.19;;;5.69;100.00
12624;BME280;6377;42.836;23.998;2023-03-01T13:49:42;96068.66;;;5.39;100.00
12624;BME280;6377;42.836;23.998;2023-03-01T13:52:31;96123.34;;;5.73;100.00
12624;BME280;6377;42.836;23.998;2023-03-01T13:55:03;96078.75;;;5.44;100.00
12624;BME280;6377;42.836;23.998;2023-03-01T13:57:34;96126.13;;;5.71;100.00
12624;BME280;6377;42.836;23.998;2023-03-01T14:00:06;96133.16;;;5.71;100.00